VISIB

Not for real navigation. The accuracy of this data is not assured See disclaimer for more information



ICAO NAME COUNTRY WIND Kt GUST Kt VIS m TEMP/DEW C BARO METAR
ELLX Luxembourg / Luxembourg Luxembourg 5 0 100 1/1 30.15 ELLX 251250Z 19005KT 150V230 0100 R24/0375N FG VV002 01/01 Q1021 BECMG 1200 BR
CWSA Sable Island, N. S. Canada 9 0 200 5/5 30.10 CWSA 251300Z AUTO 20009KT 0.125SM FG VV002 05/05 A3010 RMK SLP195
CYYZ Toronto Pearson Int’L. Ont. Canada 5 0 200 6/5 29.41 CYYZ 251300Z 17005KT 0.125SM R06L/1100FT/N R05/1200FT/N FG OVC001 06/05 A2941 RMK FG1ST7 SLP966
KMIA MIAMI INTERNATIONAL AIRPORT FL United States 0 0 200 19/19 29.90 KMIA 251253Z 00000KT 0.125SM R09/0800V1200FT FG VV002 19/19 A2990 RMK AO2 SLP126 T01890189
KBVY BEVERLY MUNICIPAL AIRPORT MA United States 8 0 200 10/10 29.85 KBVY 251253Z 13008KT 0.125SM FG VV002 10/10 A2985 RMK AO2 SLP102 T01000100

Show more